Time;durP1;ratioP1;P1;durP2;ratioP2;P2;SDS_P1;SDS_P2;PMS_P1;PMS_P2;Temp;Humidity;BMP_temperature;BMP_pressure;BME280_temperature;BME280_humidity;BME280_pressure;Samples;Min_cycle;Max_cycle;Signal;HPM_P1;HPM_P2
2023/11/28 00:00:12;;;;;;;3.53;3.03;;;;;;;-4.26;100.00;99065.69;5114112;28;20073;-67
2023/11/28 00:02:39;;;;;;;3.78;3.38;;;;;;;-4.23;100.00;99062.88;5114328;28;20059;-67
2023/11/28 00:05:12;;;;;;;3.75;2.83;;;;;;;-4.25;100.00;99069.94;5112786;28;20047;-65
2023/11/28 00:07:38;;;;;;;2.83;2.53;;;;;;;-4.37;100.00;99056.88;5114349;28;20036;-68
2023/11/28 00:10:04;;;;;;;3.07;2.77;;;;;;;-4.25;100.00;99064.75;5114188;28;20036;-67
2023/11/28 00:12:30;;;;;;;3.33;2.88;;;;;;;-4.24;100.00;99061.22;5113994;28;20059;-67
2023/11/28 00:14:56;;;;;;;5.43;2.77;;;;;;;-4.19;100.00;99065.13;5114190;28;20067;-67
2023/11/28 00:17:22;;;;;;;4.00;3.03;;;;;;;-4.32;100.00;99051.38;5114197;28;20123;-66
2023/11/28 00:19:47;;;;;;;3.33;3.03;;;;;;;-4.29;100.00;99047.72;5114307;28;20032;-66
2023/11/28 00:22:13;;;;;;;14.10;2.87;;;;;;;-4.51;100.00;99007.69;5114214;28;20043;-65
2023/11/28 00:24:38;;;;;;;4.03;3.63;;;;;;;-4.13;100.00;99080.28;5114110;28;20410;-65
2023/11/28 00:27:04;;;;;;;4.33;3.93;;;;;;;-4.25;100.00;99050.00;5114193;28;20589;-66
2023/11/28 00:29:30;;;;;;;3.30;3.00;;;;;;;-4.51;100.00;98991.28;5113688;27;20031;-64
2023/11/28 00:31:55;;;;;;;3.50;3.20;;;;;;;-4.13;100.00;99049.09;5113928;28;20043;-65
2023/11/28 00:34:24;;;;;;;5.13;3.57;;;;;;;-4.12;100.00;99058.53;5114073;28;20063;-65
2023/11/28 00:36:50;;;;;;;3.05;2.75;;;;;;;-4.23;100.00;99036.88;5113592;28;20124;-66
2023/11/28 00:39:16;;;;;;;3.33;3.03;;;;;;;-4.30;100.00;99030.47;5114680;28;20080;-65
2023/11/28 00:41:43;;;;;;;3.30;3.00;;;;;;;-4.38;100.00;99018.00;5112861;28;20036;-66
2023/11/28 00:44:09;;;;;;;48.15;6.47;;;;;;;-4.18;100.00;99072.00;5113784;28;20044;-64
2023/11/28 00:46:39;;;;;;;4.97;3.30;;;;;;;-4.14;100.00;99052.63;5113906;28;20076;-66
2023/11/28 00:49:05;;;;;;;112.47;10.25;;;;;;;-4.26;100.00;99032.72;5114211;28;20046;-64
2023/11/28 00:51:31;;;;;;;4.50;3.73;;;;;;;-4.23;100.00;99036.88;5114455;28;20028;-67
2023/11/28 00:53:56;;;;;;;5.80;3.03;;;;;;;-4.12;100.00;99050.75;5113847;28;20088;-66
2023/11/28 00:56:22;;;;;;;4.27;3.23;;;;;;;-4.15;100.00;99048.38;5114011;28;20391;-66
2023/11/28 00:58:50;;;;;;;5.00;3.83;;;;;;;-4.10;100.00;99059.25;5112340;28;20027;-65
2023/11/28 01:01:20;;;;;;;4.85;3.45;;;;;;;-4.14;100.00;99047.44;5114130;28;20183;-65
2023/11/28 01:03:46;;;;;;;3.40;3.00;;;;;;;-4.23;100.00;99032.50;5112392;28;20116;-66
2023/11/28 01:06:11;;;;;;;3.87;3.23;;;;;;;-4.19;100.00;99044.34;5113651;28;20051;-67
2023/11/28 01:08:37;;;;;;;3.47;3.17;;;;;;;-4.10;100.00;99046.25;5113621;28;20042;-65
2023/11/28 01:11:03;;;;;;;3.50;3.20;;;;;;;-4.00;100.00;99058.59;5112920;28;20394;-65
2023/11/28 01:13:28;;;;;;;5.50;3.40;;;;;;;-4.09;100.00;99050.50;5113191;28;20047;-64
2023/11/28 01:15:54;;;;;;;4.50;3.87;;;;;;;-4.03;100.00;99038.03;5113266;28;20082;-67
2023/11/28 01:18:20;;;;;;;17.80;5.00;;;;;;;-4.19;100.00;99033.94;5113077;28;20063;-66
2023/11/28 01:20:46;;;;;;;5.07;3.20;;;;;;;-4.27;100.00;99009.47;5113070;28;20417;-67
2023/11/28 01:23:12;;;;;;;9.40;4.13;;;;;;;-4.43;100.00;98999.34;5112857;28;20073;-65
2023/11/28 01:25:38;;;;;;;3.42;3.00;;;;;;;-4.15;100.00;99040.56;5112756;28;20533;-67
2023/11/28 01:28:03;;;;;;;4.60;4.07;;;;;;;-4.03;100.00;99058.84;5112878;27;20040;-67
2023/11/28 01:30:29;;;;;;;4.57;3.33;;;;;;;-3.99;100.00;99062.88;5112876;28;20563;-65
2023/11/28 01:32:55;;;;;;;4.10;3.57;;;;;;;-4.07;100.00;99043.44;5113605;28;20052;-66
2023/11/28 01:35:21;;;;;;;3.17;2.87;;;;;;;-4.02;100.00;99035.31;5112107;28;20031;-67
2023/11/28 01:37:46;;;;;;;4.00;3.60;;;;;;;-4.32;100.00;98978.59;5112590;28;20434;-67
2023/11/28 01:40:12;;;;;;;4.97;3.50;;;;;;;-4.31;100.00;98979.44;5112288;28;20395;-67
2023/11/28 01:42:38;;;;;;;3.20;2.90;;;;;;;-3.85;100.00;99047.88;5112654;28;20036;-65
2023/11/28 01:45:05;;;;;;;3.65;2.88;;;;;;;-3.87;100.00;99043.75;5112279;28;20036;-66
2023/11/28 01:47:33;;;;;;;3.78;3.30;;;;;;;-3.95;100.00;99028.72;5112484;28;20486;-67
2023/11/28 01:50:00;;;;;;;4.43;3.35;;;;;;;-4.00;100.00;99022.19;5109136;28;20070;-64
2023/11/28 01:52:27;;;;;;;6.57;3.35;;;;;;;-3.90;100.00;99037.00;5112017;28;20032;-67
2023/11/28 01:54:53;;;;;;;4.40;3.38;;;;;;;-3.86;100.00;99038.44;5112441;28;20440;-66
2023/11/28 01:57:19;;;;;;;3.27;2.73;;;;;;;-3.83;100.00;99042.56;5112492;28;20035;-67
2023/11/28 01:59:46;;;;;;;3.00;2.70;;;;;;;-3.84;100.00;99043.50;5112660;28;20115;-65
2023/11/28 02:02:15;;;;;;;3.28;2.97;;;;;;;-3.85;100.00;99039.25;5112050;28;20127;-66
2023/11/28 02:04:41;;;;;;;3.25;2.97;;;;;;;-3.81;100.00;99044.13;5112145;28;20478;-66
2023/11/28 02:07:07;;;;;;;4.50;3.65;;;;;;;-3.81;100.00;99045.88;5112304;28;20063;-66
2023/11/28 02:09:33;;;;;;;3.97;3.53;;;;;;;-3.84;100.00;99049.53;5111679;28;20517;-65
2023/11/28 02:11:59;;;;;;;3.70;3.40;;;;;;;-3.85;100.00;99040.09;5111670;28;20125;-65
2023/11/28 02:14:24;;;;;;;6.53;3.50;;;;;;;-4.19;100.00;98983.72;5111870;28;20044;-65
2023/11/28 02:16:50;;;;;;;4.57;3.57;;;;;;;-4.19;100.00;98989.75;5111619;28;20031;-66
2023/11/28 02:19:16;;;;;;;3.43;3.03;;;;;;;-3.72;100.00;99058.22;5112009;28;20524;-66
2023/11/28 02:22:02;;;;;;;5.38;3.00;;;;;;;-3.72;100.00;99073.00;5111081;28;20056;-66
2023/11/28 02:24:30;;;;;;;3.55;3.25;;;;;;;-3.83;100.00;99037.38;5110463;28;20039;-65
2023/11/28 02:26:55;;;;;;;3.83;2.83;;;;;;;-3.67;100.00;99068.28;5111600;28;20495;-64
2023/11/28 02:29:21;;;;;;;4.73;3.20;;;;;;;-3.77;100.00;99034.31;5111623;28;20046;-66
2023/11/28 02:31:48;;;;;;;6.23;3.43;;;;;;;-3.66;100.00;99056.94;5111668;28;20038;-66
2023/11/28 02:34:14;;;;;;;3.83;3.53;;;;;;;-4.07;100.00;98991.44;5111760;28;20035;-66
2023/11/28 02:36:39;;;;;;;4.10;3.70;;;;;;;-3.67;100.00;99048.31;5112270;28;20169;-67
2023/11/28 02:39:05;;;;;;;4.53;3.10;;;;;;;-3.58;100.00;99068.44;5111671;28;20068;-66
2023/11/28 02:41:31;;;;;;;4.90;4.37;;;;;;;-3.56;100.00;99066.53;5110640;28;20157;-66
2023/11/28 02:43:56;;;;;;;4.07;3.57;;;;;;;-3.55;100.00;99065.59;5111854;28;20036;-67
2023/11/28 02:46:22;;;;;;;4.97;4.23;;;;;;;-3.73;100.00;99019.31;5111831;28;20032;-67
2023/11/28 02:48:47;;;;;;;3.97;3.57;;;;;;;-3.69;100.00;99037.19;5112294;28;20481;-65
2023/11/28 02:51:19;;;;;;;5.00;4.30;;;;;;;-3.66;100.00;99039.56;5111940;28;20375;-69
2023/11/28 02:53:44;;;;;;;4.70;3.97;;;;;;;-3.61;100.00;99031.41;5111910;28;20103;-66
2023/11/28 02:56:12;;;;;;;6.97;4.77;;;;;;;-3.67;100.00;99019.69;5111605;28;20418;-67
2023/11/28 02:58:38;;;;;;;4.40;3.92;;;;;;;-3.40;100.00;99063.63;5113327;28;20078;-66
2023/11/28 03:01:04;;;;;;;4.50;3.90;;;;;;;-3.57;100.00;99036.25;5113341;28;20059;-66
2023/11/28 03:03:30;;;;;;;5.43;4.10;;;;;;;-3.63;100.00;99031.53;5113227;28;20109;-65
2023/11/28 03:05:55;;;;;;;7.00;3.97;;;;;;;-3.49;100.00;99041.69;5112413;28;20066;-66
2023/11/28 03:08:21;;;;;;;4.97;3.83;;;;;;;-3.53;100.00;99053.28;5111634;28;20478;-65
2023/11/28 03:10:47;;;;;;;8.10;4.93;;;;;;;-3.51;100.00;99035.78;5111540;28;20067;-66
2023/11/28 03:13:12;;;;;;;6.63;4.20;;;;;;;-3.48;100.00;99055.53;5111575;28;20123;-65
2023/11/28 03:15:38;;;;;;;5.73;4.67;;;;;;;-3.43;100.00;99069.06;5110586;28;20248;-65
2023/11/28 03:18:04;;;;;;;5.23;4.23;;;;;;;-3.75;100.00;99007.25;5112708;28;20032;-65
2023/11/28 03:20:30;;;;;;;6.00;5.13;;;;;;;-3.33;100.00;99063.97;5111948;28;20043;-67
2023/11/28 03:22:55;;;;;;;6.47;4.87;;;;;;;-3.24;100.00;99068.47;5112352;28;20042;-65
2023/11/28 03:25:21;;;;;;;8.40;5.43;;;;;;;-3.28;100.00;99059.25;5111617;28;20297;-65
2023/11/28 03:27:46;;;;;;;5.57;4.27;;;;;;;-3.14;100.00;99078.09;5113197;28;20391;-66
2023/11/28 03:30:12;;;;;;;5.70;4.70;;;;;;;-3.25;100.00;99048.59;5115032;28;20122;-65
2023/11/28 03:32:38;;;;;;;5.50;4.70;;;;;;;-3.09;100.00;99071.69;5115025;28;20067;-65
2023/11/28 03:35:04;;;;;;;5.57;4.53;;;;;;;-3.17;100.00;99064.47;5113544;28;20047;-65
2023/11/28 03:37:33;;;;;;;5.43;4.10;;;;;;;-3.08;100.00;99076.78;5114988;28;20038;-66
2023/11/28 03:39:58;;;;;;;6.05;4.35;;;;;;;-3.13;100.00;99064.13;5113498;28;20043;-66
2023/11/28 03:42:24;;;;;;;5.67;4.50;;;;;;;-3.16;100.00;99060.94;5114646;28;20058;-67
2023/11/28 03:44:49;;;;;;;4.87;4.23;;;;;;;-3.01;100.00;99085.78;5114507;28;20043;-65
2023/11/28 03:47:16;;;;;;;6.50;4.80;;;;;;;-3.06;100.00;99093.13;5113073;28;20027;-66
2023/11/28 03:49:42;;;;;;;6.88;4.97;;;;;;;-3.08;100.00;99083.78;5114349;28;20062;-66
2023/11/28 03:52:07;;;;;;;7.57;4.77;;;;;;;-2.99;100.00;99088.28;5114676;28;20151;-67
2023/11/28 03:54:33;;;;;;;6.37;5.37;;;;;;;-3.13;100.00;99082.34;5113935;28;20497;-66
2023/11/28 03:56:59;;;;;;;7.53;5.50;;;;;;;-3.13;100.00;99084.13;5114466;28;20489;-66
2023/11/28 03:59:24;;;;;;;7.87;5.60;;;;;;;-2.96;100.00;99103.66;5114400;27;20031;-65
2023/11/28 04:01:50;;;;;;;7.37;4.87;;;;;;;-2.97;100.00;99102.00;5114043;28;20490;-67
2023/11/28 04:04:15;;;;;;;5.20;4.70;;;;;;;-3.02;100.00;99094.53;5114298;28;20064;-67
2023/11/28 04:06:41;;;;;;;6.87;4.90;;;;;;;-2.94;100.00;99114.78;5114209;28;20422;-69
2023/11/28 04:09:07;;;;;;;8.27;5.10;;;;;;;-3.09;100.00;99092.53;5095795;28;20036;-67
2023/11/28 04:11:32;;;;;;;5.90;4.43;;;;;;;-2.88;100.00;99122.16;5113962;28;20032;-66
2023/11/28 04:13:58;;;;;;;6.63;4.60;;;;;;;-2.99;100.00;99104.72;5113958;28;20038;-67
2023/11/28 04:16:24;;;;;;;5.53;4.40;;;;;;;-3.02;100.00;99097.16;5112887;28;20131;-68
2023/11/28 04:18:51;;;;;;;7.23;4.90;;;;;;;-3.03;100.00;99090.28;5114335;28;20162;-68
2023/11/28 04:21:21;;;;;;;6.55;5.18;;;;;;;-2.84;100.00;99123.56;5114396;28;20073;-71
2023/11/28 04:23:47;;;;;;;5.32;4.72;;;;;;;-2.90;100.00;99127.47;5113739;28;20503;-65
2023/11/28 04:26:13;;;;;;;7.32;5.55;;;;;;;-3.04;100.00;99080.00;5113933;28;20040;-69
2023/11/28 04:28:39;;;;;;;5.57;4.60;;;;;;;-2.82;100.00;99106.88;5113754;28;20047;-68
2023/11/28 04:31:05;;;;;;;6.67;4.67;;;;;;;-2.91;100.00;99109.34;5113618;28;20043;-70
2023/11/28 04:33:31;;;;;;;7.05;4.90;;;;;;;-2.98;100.00;99080.34;5113723;28;20075;-66
2023/11/28 04:35:56;;;;;;;8.23;4.73;;;;;;;-2.90;100.00;99093.59;5113360;28;20071;-69
2023/11/28 04:38:23;;;;;;;10.23;5.37;;;;;;;-2.74;100.00;99121.09;5113507;28;20035;-66
2023/11/28 04:40:49;;;;;;;6.70;5.30;;;;;;;-2.77;100.00;99105.69;5113864;28;20035;-66
2023/11/28 04:43:15;;;;;;;7.10;4.85;;;;;;;-2.74;100.00;99108.06;5113372;28;20130;-64
2023/11/28 04:45:40;;;;;;;8.17;5.70;;;;;;;-2.77;100.00;99119.53;5113862;28;20476;-64
2023/11/28 04:48:06;;;;;;;7.27;5.70;;;;;;;-2.65;100.00;99139.44;5114172;28;20036;-68
2023/11/28 04:50:32;;;;;;;6.60;5.30;;;;;;;-2.88;100.00;99096.09;5111937;28;20036;-70
2023/11/28 04:52:57;;;;;;;6.90;5.00;;;;;;;-2.59;100.00;99127.72;5113320;28;20034;-68
2023/11/28 04:55:23;;;;;;;8.20;5.07;;;;;;;-2.62;100.00;99122.72;5109620;28;20475;-69
2023/11/28 04:57:48;;;;;;;7.43;4.50;;;;;;;-2.55;100.00;99134.34;5113910;28;20040;-70
2023/11/28 05:00:15;;;;;;;5.03;4.23;;;;;;;-2.61;100.00;99130.41;5113182;28;20035;-63
2023/11/28 05:02:43;;;;;;;5.70;4.85;;;;;;;-2.93;100.00;99085.19;5113582;28;20172;-68
2023/11/28 05:05:09;;;;;;;6.22;5.55;;;;;;;-2.57;100.00;99137.09;5112203;28;20051;-65
2023/11/28 05:07:35;;;;;;;5.57;4.73;;;;;;;-2.61;100.00;99134.81;5112462;28;20042;-68
2023/11/28 05:10:01;;;;;;;8.07;5.27;;;;;;;-2.52;100.00;99149.75;5112985;28;20035;-66
2023/11/28 05:12:26;;;;;;;6.20;4.97;;;;;;;-2.58;100.00;99150.22;5113327;27;20174;-66
2023/11/28 05:14:52;;;;;;;7.13;4.83;;;;;;;-2.54;100.00;99146.44;5111329;28;20384;-64
2023/11/28 05:17:18;;;;;;;6.50;4.70;;;;;;;-2.63;100.00;99136.69;5113346;28;20046;-66
2023/11/28 05:19:47;;;;;;;6.37;5.37;;;;;;;-2.67;100.00;99119.66;5113404;28;20510;-66
2023/11/28 05:22:13;;;;;;;6.78;4.85;;;;;;;-2.50;100.00;99169.53;5113773;28;20268;-68
2023/11/28 05:24:38;;;;;;;7.83;5.00;;;;;;;-2.50;100.00;99163.50;5115391;28;20047;-64
2023/11/28 05:27:04;;;;;;;6.97;5.07;;;;;;;-2.58;100.00;99171.09;5129080;28;20039;-63
2023/11/28 05:29:30;;;;;;;7.80;4.90;;;;;;;-2.54;100.00;99170.72;5130056;28;20047;-64
2023/11/28 05:31:55;;;;;;;9.60;6.23;;;;;;;-2.53;100.00;99176.75;5130085;28;20032;-64
2023/11/28 05:34:21;;;;;;;6.90;5.33;;;;;;;-2.53;100.00;99163.72;5122280;28;20034;-63
2023/11/28 05:36:47;;;;;;;7.97;5.30;;;;;;;-2.54;100.00;99167.28;5112703;28;20043;-69
2023/11/28 05:39:13;;;;;;;7.75;4.53;;;;;;;-2.57;100.00;99162.31;5112791;28;20280;-66
2023/11/28 05:41:42;;;;;;;6.83;5.33;;;;;;;-2.86;100.00;99120.25;5112364;28;20032;-65
2023/11/28 05:44:07;;;;;;;8.77;5.95;;;;;;;-2.60;100.00;99152.97;5112776;28;20040;-67
2023/11/28 05:46:33;;;;;;;7.03;6.33;;;;;;;-2.39;100.00;99193.94;5113473;28;20084;-68
2023/11/28 05:49:02;;;;;;;9.63;6.27;;;;;;;-2.47;100.00;99163.25;5112698;28;20031;-66
2023/11/28 05:51:27;;;;;;;8.50;7.15;;;;;;;-2.32;100.00;99193.31;5111486;28;20031;-64
2023/11/28 05:53:53;;;;;;;8.40;6.47;;;;;;;-2.38;100.00;99180.78;5110688;28;20084;-62
2023/11/28 05:56:19;;;;;;;8.37;6.33;;;;;;;-2.69;100.00;99137.19;5112220;28;20479;-63
2023/11/28 05:58:44;;;;;;;7.33;5.97;;;;;;;-2.24;100.00;99206.63;5110782;28;20128;-66
2023/11/28 06:01:14;;;;;;;7.70;5.93;;;;;;;-2.35;100.00;99185.75;5112508;28;20031;-65
2023/11/28 06:03:41;;;;;;;7.85;6.45;;;;;;;-2.22;100.00;99212.53;5110243;28;20071;-64
2023/11/28 06:06:11;;;;;;;7.78;5.63;;;;;;;-2.30;100.00;99207.09;5111029;28;20054;-65
2023/11/28 06:08:36;;;;;;;9.38;6.63;;;;;;;-2.54;100.00;99167.28;5110850;28;20039;-65
2023/11/28 06:11:02;;;;;;;6.77;5.90;;;;;;;-2.25;100.00;99212.78;5112026;28;20477;-65
2023/11/28 06:13:27;;;;;;;8.63;6.53;;;;;;;-2.39;100.00;99193.94;5112072;28;20031;-65
2023/11/28 06:15:53;;;;;;;12.17;6.70;;;;;;;-2.25;100.00;99220.59;5110567;28;20036;-63
2023/11/28 06:18:19;;;;;;;9.83;7.23;;;;;;;-2.35;100.00;99200.56;5110532;28;20042;-65
2023/11/28 06:20:45;;;;;;;7.78;6.28;;;;;;;-2.34;100.00;99208.25;5109298;28;20035;-65
2023/11/28 06:23:14;;;;;;;10.53;6.83;;;;;;;-2.29;100.00;99218.38;5112612;28;20043;-66
2023/11/28 06:25:40;;;;;;;9.02;6.20;;;;;;;-2.22;100.00;99230.81;5113567;28;20032;-66
2023/11/28 06:28:07;;;;;;;9.53;7.17;;;;;;;-2.24;100.00;99226.66;5094785;28;20089;-64
2023/11/28 06:30:35;;;;;;;7.88;6.63;;;;;;;-2.41;100.00;99209.69;5113553;28;20036;-64
2023/11/28 06:33:01;;;;;;;8.95;6.80;;;;;;;-2.19;100.00;99237.56;5114139;28;20028;-64
2023/11/28 06:35:27;;;;;;;10.40;6.87;;;;;;;-2.15;100.00;99232.94;5112999;28;20046;-68
2023/11/28 06:37:52;;;;;;;7.93;6.83;;;;;;;-2.16;100.00;99228.66;5112737;28;20075;-68
2023/11/28 06:40:21;;;;;;;8.53;6.70;;;;;;;-2.12;100.00;99240.50;5113396;28;20035;-67
2023/11/28 06:42:46;;;;;;;8.10;6.35;;;;;;;-2.09;100.00;99246.31;5114124;28;20039;-65
2023/11/28 06:45:12;;;;;;;7.97;6.57;;;;;;;-2.08;100.00;99247.13;5112987;28;20032;-67
2023/11/28 06:47:38;;;;;;;9.73;7.57;;;;;;;-2.23;100.00;99223.94;5113965;28;20360;-65
2023/11/28 06:50:05;;;;;;;9.38;7.30;;;;;;;-2.22;100.00;99228.19;5112651;28;20031;-66
2023/11/28 06:52:33;;;;;;;9.73;6.82;;;;;;;-2.27;100.00;99226.91;5113563;28;20036;-66
2023/11/28 06:54:59;;;;;;;10.85;6.97;;;;;;;-2.03;100.00;99255.44;5115344;28;20161;-66
2023/11/28 06:57:24;;;;;;;9.33;6.93;;;;;;;-2.09;100.00;99241.09;5116211;28;20031;-63
2023/11/28 06:59:50;;;;;;;8.57;6.63;;;;;;;-2.12;100.00;99237.91;5123817;28;20047;-65
2023/11/28 07:02:17;;;;;;;10.10;7.07;;;;;;;-1.93;100.00;99266.84;5131847;28;20035;-67
2023/11/28 07:04:42;;;;;;;8.90;6.70;;;;;;;-1.86;100.00;99268.00;5135684;28;20043;-66
2023/11/28 07:07:08;;;;;;;16.73;7.47;;;;;;;-2.11;100.00;99236.94;5124115;28;20042;-67
2023/11/28 07:09:35;;;;;;;12.13;7.60;;;;;;;-1.81;100.00;99288.50;5124900;28;20165;-66
2023/11/28 07:12:00;;;;;;;8.57;6.80;;;;;;;-2.75;100.00;99135.06;5126073;28;20015;-63
2023/11/28 07:14:26;;;;;;;13.07;6.20;;;;;;;-1.87;100.00;99277.63;5121303;28;20266;-66
2023/11/28 07:16:51;;;;;;;10.83;8.43;;;;;;;-1.81;100.00;99286.72;5132244;28;20061;-65
2023/11/28 07:19:17;;;;;;;11.50;7.53;;;;;;;-1.74;100.00;99292.28;5121870;28;20482;-66
2023/11/28 07:21:43;;;;;;;8.03;6.73;;;;;;;-1.90;100.00;99266.59;5119851;28;20182;-65
2023/11/28 07:24:08;;;;;;;6.43;5.73;;;;;;;-1.71;100.00;99308.56;5117200;28;20042;-64
2023/11/28 07:26:34;;;;;;;7.47;5.93;;;;;;;-1.75;100.00;99290.63;5117383;28;20114;-65
2023/11/28 07:29:00;;;;;;;7.60;5.67;;;;;;;-1.65;100.00;99310.69;5118323;28;20125;-64
2023/11/28 07:31:28;;;;;;;9.73;6.10;;;;;;;-1.62;100.00;99313.06;5116360;28;20052;-67
2023/11/28 07:33:54;;;;;;;9.52;5.50;;;;;;;-1.73;100.00;99294.81;5118565;28;20322;-65
2023/11/28 07:36:20;;;;;;;6.50;5.73;;;;;;;-1.56;100.00;99317.78;5118982;28;20130;-66
2023/11/28 07:38:49;;;;;;;10.00;6.87;;;;;;;-1.49;100.00;99307.69;5114211;28;20100;-65
2023/11/28 07:41:14;;;;;;;;;;;;;;;-1.43;100.00;99316.84;5116343;28;20039;-64
2023/11/28 07:43:39;;;;;;;6.00;5.37;;;;;;;-1.44;100.00;99315.19;5114112;28;19920;-66
2023/11/28 07:46:07;;;;;;;5.43;4.93;;;;;;;-1.51;100.00;99313.97;5115525;28;20054;-64
2023/11/28 07:48:32;;;;;;;7.90;5.77;;;;;;;-1.53;100.00;99305.44;5114398;28;20378;-65
2023/11/28 07:50:58;;;;;;;5.80;5.13;;;;;;;-1.37;100.00;99332.00;5114735;28;20259;-64
2023/11/28 07:53:23;;;;;;;8.07;5.47;;;;;;;-1.35;100.00;99335.34;5113834;28;20123;-66
2023/11/28 07:55:49;;;;;;;8.03;6.30;;;;;;;-1.45;100.00;99323.94;5114419;28;20046;-68
2023/11/28 07:58:14;;;;;;;6.33;5.13;;;;;;;-1.39;100.00;99331.31;5112701;28;20123;-65
2023/11/28 08:00:40;;;;;;;5.87;4.90;;;;;;;-1.74;100.00;99276.63;5114303;28;20034;-65
2023/11/28 08:03:07;;;;;;;8.77;6.90;;;;;;;-1.37;100.00;99326.78;5110596;28;20062;-66
2023/11/28 08:05:32;;;;;;;9.97;6.00;;;;;;;-1.42;100.00;99328.94;5112752;28;20051;-66
2023/11/28 08:07:58;;;;;;;6.83;5.67;;;;;;;-1.33;100.00;99343.88;5113359;28;20257;-65
2023/11/28 08:10:24;;;;;;;8.80;6.67;;;;;;;-1.27;100.00;99349.44;5113745;28;20034;-66
2023/11/28 08:12:49;;;;;;;6.20;5.60;;;;;;;-1.27;100.00;99359.06;5113190;28;20031;-66
2023/11/28 08:15:15;;;;;;;9.07;6.00;;;;;;;-1.29;100.00;99361.78;5113834;28;20066;-68
2023/11/28 08:17:40;;;;;;;8.30;5.87;;;;;;;-1.44;100.00;99331.69;5112097;28;20089;-67
2023/11/28 08:20:08;;;;;;;9.23;5.87;;;;;;;-1.20;100.00;99362.00;5113446;28;20039;-66
2023/11/28 08:22:36;;;;;;;8.20;5.50;;;;;;;-1.23;100.00;99355.25;5111920;28;20047;-67
2023/11/28 08:25:02;;;;;;;8.32;5.60;;;;;;;-1.26;100.00;99355.47;5113528;28;20289;-70
2023/11/28 08:27:31;;;;;;;11.20;6.80;;;;;;;-1.21;100.00;99358.56;5113808;28;20031;-67
2023/11/28 08:29:57;;;;;;;8.23;5.30;;;;;;;-1.23;100.00;99368.28;5113478;28;20039;-67
2023/11/28 08:32:23;;;;;;;6.67;5.60;;;;;;;-1.59;100.00;99314.59;5113225;28;20282;-68
2023/11/28 08:34:49;;;;;;;7.20;5.67;;;;;;;-1.29;100.00;99366.19;5113214;28;20764;-67
2023/11/28 08:37:15;;;;;;;8.60;5.47;;;;;;;-1.19;100.00;99377.56;5113444;28;20589;-69
2023/11/28 08:39:40;;;;;;;9.67;6.63;;;;;;;-1.22;100.00;99384.81;5113307;28;20491;-69
2023/11/28 08:42:06;;;;;;;10.60;7.83;;;;;;;-1.26;100.00;99358.94;5113260;28;20289;-68
2023/11/28 08:44:32;;;;;;;6.60;5.90;;;;;;;-1.15;100.00;99389.44;5113038;28;20122;-69
2023/11/28 08:46:59;;;;;;;7.53;6.27;;;;;;;-1.65;100.00;99297.66;5112845;28;20035;-66
2023/11/28 08:49:24;;;;;;;8.70;6.97;;;;;;;-1.13;100.00;99376.25;5113464;28;20643;-69
2023/11/28 08:51:50;;;;;;;7.40;5.93;;;;;;;-1.16;100.00;99369.47;5113739;28;20085;-68
2023/11/28 08:54:17;;;;;;;9.17;5.67;;;;;;;-1.13;100.00;99387.53;5112821;28;20081;-68
2023/11/28 08:56:43;;;;;;;8.93;5.73;;;;;;;-1.17;100.00;99377.44;5113740;28;20270;-65
2023/11/28 08:59:08;;;;;;;7.53;5.90;;;;;;;-1.18;100.00;99370.53;5114307;28;20794;-67
2023/11/28 09:01:34;;;;;;;8.67;6.07;;;;;;;-1.17;100.00;99380.88;5113661;28;20031;-66
2023/11/28 09:04:00;;;;;;;7.03;5.33;;;;;;;-1.19;100.00;99382.78;5112913;28;20067;-67
2023/11/28 09:06:31;;;;;;;21.87;7.07;;;;;;;-1.15;100.00;99384.22;5113163;28;20039;-69
2023/11/28 09:08:57;;;;;;;7.07;5.37;;;;;;;-1.13;100.00;99390.16;5113214;27;20262;-69
2023/11/28 09:11:23;;;;;;;9.80;8.20;;;;;;;-1.17;100.00;99386.09;5112782;28;20322;-75
2023/11/28 09:13:48;;;;;;;8.07;5.57;;;;;;;-1.13;100.00;99389.31;5107823;28;20119;-70
2023/11/28 09:16:14;;;;;;;6.63;5.53;;;;;;;-1.20;100.00;99388.94;5112684;28;20474;-68
2023/11/28 09:18:40;;;;;;;9.07;5.93;;;;;;;-1.26;100.00;99389.44;5112469;28;20031;-65
2023/11/28 09:21:07;;;;;;;6.67;5.60;;;;;;;-1.11;100.00;99414.38;5112544;28;20040;-67
2023/11/28 09:23:33;;;;;;;8.27;6.40;;;;;;;-1.15;100.00;99405.13;5112654;27;20268;-67
2023/11/28 09:25:59;;;;;;;7.53;5.77;;;;;;;-1.21;100.00;99402.97;5111621;28;20265;-69
2023/11/28 09:28:25;;;;;;;6.97;5.57;;;;;;;-1.20;100.00;99395.97;5112477;28;20269;-67
2023/11/28 09:30:51;;;;;;;12.10;6.17;;;;;;;-1.25;100.00;99409.38;5112293;28;20261;-70
2023/11/28 09:33:16;;;;;;;10.93;6.53;;;;;;;-1.05;100.00;99442.63;5112667;28;20110;-67
2023/11/28 09:35:43;;;;;;;8.00;6.20;;;;;;;-1.22;100.00;99414.38;5112633;27;20035;-67
2023/11/28 09:38:10;;;;;;;7.23;5.70;;;;;;;-1.09;100.00;99430.75;5109676;28;20032;-68
2023/11/28 09:40:39;;;;;;;11.23;6.17;;;;;;;-1.11;100.00;99429.22;5111333;28;20285;-69
2023/11/28 09:43:05;;;;;;;8.90;6.68;;;;;;;-1.14;100.00;99419.84;5112172;28;20277;-68
2023/11/28 09:45:37;;;;;;;7.53;5.93;;;;;;;-1.16;100.00;99424.31;5111085;28;20490;-68
2023/11/28 09:48:10;;;;;;;7.80;6.33;;;;;;;-1.20;100.00;99425.53;5112713;28;20042;-68
2023/11/28 09:50:38;;;;;;;6.93;5.53;;;;;;;-1.33;100.00;99417.81;5111548;28;20338;-69
2023/11/28 09:53:05;;;;;;;9.23;6.47;;;;;;;-1.09;100.00;99443.00;5112576;28;20395;-67
2023/11/28 09:55:32;;;;;;;10.40;7.27;;;;;;;-1.07;100.00;99465.44;5112226;28;20741;-68
2023/11/28 09:58:01;;;;;;;8.23;6.80;;;;;;;-1.18;100.00;99434.06;5093609;28;20273;-67
2023/11/28 10:00:27;;;;;;;10.40;8.25;;;;;;;-0.95;100.00;99463.63;5111176;28;20276;-67
2023/11/28 10:02:56;;;;;;;7.77;6.27;;;;;;;-1.01;100.00;99459.72;5112334;28;20067;-69
2023/11/28 10:05:22;;;;;;;8.90;6.37;;;;;;;-1.04;100.00;99462.56;5112023;28;20301;-66
2023/11/28 10:07:53;;;;;;;8.73;6.10;;;;;;;-0.96;100.00;99468.00;5110809;28;20292;-68
2023/11/28 10:10:20;;;;;;;8.37;6.17;;;;;;;-0.95;100.00;99474.06;5112033;28;20258;-68
2023/11/28 10:12:47;;;;;;;9.63;6.93;;;;;;;-0.95;100.00;99474.91;5112303;28;20360;-68
2023/11/28 10:15:13;;;;;;;9.13;6.23;;;;;;;-0.96;100.00;99465.41;5113040;28;20284;-68
2023/11/28 10:17:38;;;;;;;9.37;6.83;;;;;;;-0.88;100.00;99479.63;5094051;28;20270;-67
2023/11/28 10:20:10;;;;;;;7.57;6.23;;;;;;;-1.07;100.00;99449.75;5112460;28;20035;-67
2023/11/28 10:22:39;;;;;;;10.13;7.27;;;;;;;-0.87;100.00;99482.13;5093507;28;20039;-68
2023/11/28 10:25:10;;;;;;;;;;;;;;;-0.75;100.00;99494.25;5111812;28;20365;-66
2023/11/28 10:27:46;;;;;;;10.50;7.00;;;;;;;-0.80;100.00;99480.72;5111937;28;19916;-68
2023/11/28 10:30:13;;;;;;;10.40;7.03;;;;;;;-0.75;100.00;99480.34;5111609;28;20786;-68
2023/11/28 10:32:39;;;;;;;10.80;7.93;;;;;;;-0.74;100.00;99497.69;5110529;28;20269;-67
2023/11/28 10:35:05;;;;;;;10.63;7.33;;;;;;;-0.92;100.00;99466.00;5111269;28;20283;-66
2023/11/28 10:37:35;;;;;;;8.37;7.07;;;;;;;-0.71;100.00;99492.22;5114763;28;20272;-67
2023/11/28 10:40:10;;;;;;;8.97;6.47;;;;;;;-0.62;100.00;99509.78;5115734;28;20300;-69
2023/11/28 10:42:39;;;;;;;13.93;6.73;;;;;;;-0.86;100.00;99468.13;5115129;28;20330;-69
2023/11/28 10:45:09;;;;;;;8.70;6.13;;;;;;;-0.62;100.00;99512.41;5115850;28;20648;-68
2023/11/28 10:47:41;;;;;;;13.23;7.43;;;;;;;-1.90;100.00;99322.22;5115648;28;20035;-67
2023/11/28 10:50:09;;;;;;;10.20;7.60;;;;;;;-0.78;100.00;99494.50;5115799;28;20664;-70
2023/11/28 10:52:39;;;;;;;9.77;6.43;;;;;;;-0.82;100.00;99498.31;5115759;28;20261;-66
2023/11/28 10:55:10;;;;;;;12.43;9.37;;;;;;;-0.89;100.00;99488.44;5115768;28;20605;-70
2023/11/28 10:58:16;;;;;;;10.77;7.37;;;;;;;-0.68;100.00;99525.97;5115409;28;20257;-66
2023/11/28 11:00:46;;;;;;;13.77;7.67;;;;;;;-0.62;100.00;99525.47;5102285;28;20273;-67
2023/11/28 11:03:16;;;;;;;11.20;7.67;;;;;;;-0.62;100.00;99521.06;5114095;28;20661;-67
2023/11/28 11:05:43;;;;;;;8.50;6.53;;;;;;;-0.53;100.00;99527.38;5114713;28;20305;-69
2023/11/28 11:08:10;;;;;;;10.23;7.00;;;;;;;-0.63;100.00;99513.34;5114267;28;20277;-69
2023/11/28 11:10:36;;;;;;;9.17;7.30;;;;;;;-0.71;100.00;99502.69;5089498;28;20354;-68
2023/11/28 11:13:12;;;;;;;9.93;6.83;;;;;;;-0.67;100.00;99522.38;5093365;28;20298;-69
2023/11/28 11:15:51;;;;;;;9.90;6.87;;;;;;;-0.79;100.00;99499.84;5112694;28;20268;-70
2023/11/28 11:18:34;;;;;;;9.97;6.57;;;;;;;-0.66;100.00;99540.56;5115372;28;20292;-67
2023/11/28 11:21:13;;;;;;;9.73;6.60;;;;;;;-0.66;100.00;99542.34;5114013;28;20269;-67